Time;durP1;ratioP1;P1;durP2;ratioP2;P2;SDS_P1;SDS_P2;PMS_P1;PMS_P2;Temp;Humidity;BMP_temperature;BMP_pressure;BME280_temperature;BME280_humidity;BME280_pressure;Samples;Min_cycle;Max_cycle;Signal;HPM_P1;HPM_P2
2023/12/20 00:00:16;;;;;;;56.30;4.40;;;;;;;-144.74;100.00;63161.41;4977603;28;20039;-70
2023/12/20 00:02:44;;;;;;;33.42;4.30;;;;;;;-144.74;100.00;63161.41;4986638;28;20041;-71
2023/12/20 00:05:10;;;;;;;34.78;4.30;;;;;;;-144.74;100.00;63161.41;4984920;28;20011;-71
2023/12/20 00:07:35;;;;;;;40.33;5.53;;;;;;;-144.74;100.00;63161.41;4979137;28;20022;-71
2023/12/20 00:10:01;;;;;;;32.38;4.70;;;;;;;-144.74;100.00;63161.41;4989634;28;20030;-72
2023/12/20 00:12:26;;;;;;;47.85;6.10;;;;;;;-144.74;100.00;63161.41;4987216;28;20035;-71
2023/12/20 00:14:51;;;;;;;38.63;4.97;;;;;;;-144.74;100.00;63161.41;4981428;28;20038;-70
2023/12/20 00:17:17;;;;;;;36.47;4.60;;;;;;;-144.74;100.00;63161.41;4989192;28;20026;-71
2023/12/20 00:19:45;;;;;;;34.05;4.25;;;;;;;-144.74;100.00;63161.41;4976649;28;20058;-71
2023/12/20 00:22:10;;;;;;;31.52;4.10;;;;;;;-144.74;100.00;63161.41;4983365;28;20018;-72
2023/12/20 00:24:36;;;;;;;40.40;5.22;;;;;;;-144.74;100.00;63161.41;4981306;28;20035;-72
2023/12/20 00:27:02;;;;;;;44.60;5.07;;;;;;;-144.74;100.00;63161.41;4977376;28;20372;-71
2023/12/20 00:29:27;;;;;;;27.73;3.90;;;;;;;-144.74;100.00;63161.41;4975303;28;20077;-71
2023/12/20 00:31:52;;;;;;;36.25;4.28;;;;;;;-144.74;100.00;63161.41;4977210;28;20502;-72
2023/12/20 00:34:18;;;;;;;34.88;3.88;;;;;;;-144.74;100.00;63161.41;4988372;28;20042;-72
2023/12/20 00:36:43;;;;;;;27.30;3.60;;;;;;;-144.74;100.00;63161.41;4989203;28;20022;-72
2023/12/20 00:39:08;;;;;;;25.45;3.88;;;;;;;-144.74;100.00;63161.41;4983126;28;20026;-72
2023/12/20 00:41:34;;;;;;;31.73;4.85;;;;;;;-144.74;100.00;63161.41;4976806;28;20050;-72
2023/12/20 00:43:59;;;;;;;37.33;4.82;;;;;;;-144.74;100.00;63161.41;4979598;28;20057;-71
2023/12/20 00:46:25;;;;;;;33.05;3.95;;;;;;;-144.74;100.00;63161.41;4979462;28;20030;-72
2023/12/20 00:48:50;;;;;;;33.63;3.83;;;;;;;-144.74;100.00;63161.41;4987922;28;20030;-72
2023/12/20 00:51:15;;;;;;;34.47;3.67;;;;;;;-144.74;100.00;63161.41;4981282;28;20050;-71
2023/12/20 00:53:41;;;;;;;38.67;4.68;;;;;;;-144.74;100.00;63161.41;4979443;28;20035;-72
2023/12/20 00:56:06;;;;;;;41.10;4.97;;;;;;;-144.74;100.00;63161.41;4982523;28;20393;-72
2023/12/20 00:58:32;;;;;;;28.48;4.05;;;;;;;-144.74;100.00;63161.41;4984962;28;20034;-72
2023/12/20 01:00:58;;;;;;;34.50;4.60;;;;;;;-144.74;100.00;63161.41;4981130;28;20069;-72
2023/12/20 01:03:23;;;;;;;54.55;6.78;;;;;;;-144.74;100.00;63161.41;4981287;28;20049;-72
2023/12/20 01:05:49;;;;;;;41.25;4.95;;;;;;;-144.74;100.00;63161.41;4977187;28;20018;-72
2023/12/20 01:08:14;;;;;;;35.63;5.07;;;;;;;-144.74;100.00;63161.41;4984174;28;20041;-72
2023/12/20 01:10:40;;;;;;;35.55;5.05;;;;;;;-144.74;100.00;63161.41;4986200;28;20033;-72
2023/12/20 01:13:05;;;;;;;28.88;4.50;;;;;;;-144.74;100.00;63161.41;4986841;28;20053;-72
2023/12/20 01:15:31;;;;;;;38.65;5.40;;;;;;;-144.74;100.00;63161.41;4982479;28;20081;-72
2023/12/20 01:17:58;;;;;;;29.85;3.38;;;;;;;-144.74;100.00;63161.41;4976923;28;20035;-72
2023/12/20 01:20:23;;;;;;;33.67;3.88;;;;;;;-144.74;100.00;63161.41;4976510;28;20058;-72
2023/12/20 01:22:49;;;;;;;33.08;5.53;;;;;;;-144.74;100.00;63161.41;4984463;28;20472;-71
2023/12/20 01:25:14;;;;;;;40.70;4.47;;;;;;;-144.74;100.00;63161.41;4981103;28;20037;-72
2023/12/20 01:27:39;;;;;;;37.33;3.85;;;;;;;-144.74;100.00;63161.41;4986561;28;20095;-72
2023/12/20 01:30:05;;;;;;;37.10;4.18;;;;;;;-144.74;100.00;63161.41;4986472;28;20022;-72
2023/12/20 01:32:31;;;;;;;38.75;4.97;;;;;;;-144.74;100.00;63161.41;4981411;28;20029;-72
2023/12/20 01:34:56;;;;;;;26.33;3.55;;;;;;;-144.74;100.00;63161.41;4986412;28;20037;-72
2023/12/20 01:37:23;;;;;;;55.42;5.15;;;;;;;-144.74;100.00;63161.41;4984312;28;20034;-72
2023/12/20 01:39:49;;;;;;;28.70;3.72;;;;;;;-144.74;100.00;63161.41;4982037;28;20030;-71
2023/12/20 01:42:14;;;;;;;39.58;4.70;;;;;;;-144.74;100.00;63161.41;4980539;28;20027;-72
2023/12/20 01:44:40;;;;;;;31.70;3.58;;;;;;;-144.74;100.00;63161.41;4978024;28;20058;-72
2023/12/20 01:47:05;;;;;;;36.97;5.10;;;;;;;-144.74;100.00;63161.41;4984418;28;20109;-72
2023/12/20 01:49:30;;;;;;;34.65;4.18;;;;;;;-144.74;100.00;63161.41;4972054;28;20035;-72
2023/12/20 01:51:56;;;;;;;22.23;3.45;;;;;;;-144.74;100.00;63161.41;4978860;28;20029;-72
2023/12/20 01:54:22;;;;;;;44.22;4.75;;;;;;;-144.74;100.00;63161.41;4978164;28;20043;-72
2023/12/20 01:56:48;;;;;;;40.78;5.55;;;;;;;-144.74;100.00;63161.41;4974470;28;20106;-72
2023/12/20 01:59:14;;;;;;;41.33;4.32;;;;;;;-144.74;100.00;63161.41;4978222;28;20045;-72
2023/12/20 02:01:39;;;;;;;28.02;4.93;;;;;;;-144.74;100.00;63161.41;4974893;28;20027;-72
2023/12/20 02:04:05;;;;;;;38.20;5.38;;;;;;;-144.74;100.00;63161.41;4983722;28;20038;-72
2023/12/20 02:06:33;;;;;;;33.97;4.90;;;;;;;-144.74;100.00;63161.41;4975905;28;20436;-72
2023/12/20 02:08:59;;;;;;;50.13;5.05;;;;;;;-144.74;100.00;63161.41;4983076;28;20050;-71
2023/12/20 02:11:26;;;;;;;37.38;5.18;;;;;;;-144.74;100.00;63161.41;4986862;28;20478;-71
2023/12/20 02:13:51;;;;;;;44.28;4.43;;;;;;;-144.74;100.00;63161.41;4982475;28;20035;-72
2023/12/20 02:16:17;;;;;;;30.92;3.83;;;;;;;-144.74;100.00;63161.41;4984213;28;20034;-72
2023/12/20 02:18:45;;;;;;;36.28;4.50;;;;;;;-144.74;100.00;63161.41;4982714;28;20031;-72
2023/12/20 02:21:10;;;;;;;40.13;5.10;;;;;;;-144.74;100.00;63161.41;4982057;28;20010;-73
2023/12/20 02:23:36;;;;;;;35.67;4.85;;;;;;;-144.74;100.00;63161.41;4984278;28;20038;-72
2023/12/20 02:26:03;;;;;;;47.97;5.18;;;;;;;-144.74;100.00;63161.41;4980227;28;20033;-71
2023/12/20 02:28:28;;;;;;;43.72;5.53;;;;;;;-144.74;100.00;63161.41;4974094;28;20039;-72
2023/12/20 02:30:54;;;;;;;34.33;3.67;;;;;;;-144.74;100.00;63161.41;4981185;28;20022;-72
2023/12/20 02:33:19;;;;;;;31.02;4.55;;;;;;;-144.74;100.00;63161.41;4975152;28;20038;-71
2023/12/20 02:35:45;;;;;;;27.58;5.00;;;;;;;-144.74;100.00;63161.41;4977626;28;20030;-71
2023/12/20 02:38:10;;;;;;;30.95;4.65;;;;;;;-144.74;100.00;63161.41;4972964;28;20386;-71
2023/12/20 02:40:35;;;;;;;44.28;5.47;;;;;;;-144.74;100.00;63161.41;4982685;28;20065;-72
2023/12/20 02:43:01;;;;;;;27.33;4.00;;;;;;;-144.74;100.00;63161.41;4975624;28;20027;-72
2023/12/20 02:45:27;;;;;;;36.40;4.50;;;;;;;-144.74;100.00;63161.41;4984716;28;20030;-71
2023/12/20 02:47:52;;;;;;;35.28;3.85;;;;;;;-144.74;100.00;63161.41;4979257;28;20026;-72
2023/12/20 02:50:18;;;;;;;35.92;4.47;;;;;;;-144.74;100.00;63161.41;4982826;28;20043;-72
2023/12/20 02:52:45;;;;;;;33.47;3.17;;;;;;;-144.74;100.00;63161.41;4977970;28;20100;-72
2023/12/20 02:55:11;;;;;;;31.85;4.50;;;;;;;-144.74;100.00;63161.41;4979371;28;20030;-71
2023/12/20 02:57:36;;;;;;;32.88;3.97;;;;;;;-144.74;100.00;63161.41;4976434;28;20061;-72
2023/12/20 03:00:02;;;;;;;29.27;3.28;;;;;;;-144.74;100.00;63161.41;4981540;28;20069;-72
2023/12/20 03:02:27;;;;;;;36.15;3.65;;;;;;;-144.74;100.00;63161.41;4980317;28;20114;-73
2023/12/20 03:04:54;;;;;;;38.03;3.55;;;;;;;-144.74;100.00;63161.41;4982949;28;20018;-71
2023/12/20 03:07:19;;;;;;;29.02;4.55;;;;;;;-144.74;100.00;63161.41;4979382;28;20022;-72
2023/12/20 03:09:45;;;;;;;30.63;4.32;;;;;;;-144.74;100.00;63161.41;4976460;28;20039;-72
2023/12/20 03:12:10;;;;;;;35.25;5.28;;;;;;;-144.74;100.00;63161.41;4980973;28;20014;-72
2023/12/20 03:14:35;;;;;;;42.60;4.75;;;;;;;-144.74;100.00;63161.41;4979361;28;20062;-72
2023/12/20 03:17:01;;;;;;;28.23;5.28;;;;;;;-144.74;100.00;63161.41;4982186;28;20512;-72
2023/12/20 03:19:26;;;;;;;21.75;3.58;;;;;;;-144.74;100.00;63161.41;4980122;28;20134;-72
2023/12/20 03:21:53;;;;;;;36.05;4.07;;;;;;;-144.74;100.00;63161.41;4979389;28;20034;-72
2023/12/20 03:24:18;;;;;;;36.00;4.50;;;;;;;-144.74;100.00;63161.41;4978709;28;20127;-72
2023/12/20 03:26:44;;;;;;;35.25;4.40;;;;;;;-144.74;100.00;63161.41;4985802;28;20106;-72
2023/12/20 03:29:09;;;;;;;41.53;5.13;;;;;;;-144.74;100.00;63161.41;4978852;28;20042;-72
2023/12/20 03:31:34;;;;;;;36.63;4.18;;;;;;;-144.74;100.00;63161.41;4977560;28;20074;-72
2023/12/20 03:34:00;;;;;;;39.35;5.25;;;;;;;-144.74;100.00;63161.41;4963804;28;20032;-73
2023/12/20 03:36:25;;;;;;;24.38;3.90;;;;;;;-144.74;100.00;63161.41;4977433;28;20434;-72
2023/12/20 03:38:53;;;;;;;40.97;5.60;;;;;;;-144.74;100.00;63161.41;4981583;28;20026;-73
2023/12/20 03:41:21;;;;;;;31.95;4.72;;;;;;;-144.74;100.00;63161.41;4971732;28;20041;-71
2023/12/20 03:43:47;;;;;;;39.80;4.95;;;;;;;-144.74;100.00;63161.41;4984855;28;20525;-73
2023/12/20 03:46:12;;;;;;;35.38;4.93;;;;;;;-144.74;100.00;63161.41;4979052;28;20035;-73
2023/12/20 03:48:37;;;;;;;31.80;4.05;;;;;;;-144.74;100.00;63161.41;4981879;28;20034;-71
2023/12/20 03:51:03;;;;;;;27.75;4.03;;;;;;;-144.74;100.00;63161.41;4976617;28;20026;-71
2023/12/20 03:53:28;;;;;;;30.90;4.00;;;;;;;-144.74;100.00;63161.41;4977441;28;20562;-72
2023/12/20 03:55:54;;;;;;;36.35;4.88;;;;;;;-144.74;100.00;63161.41;4979502;28;20022;-71
2023/12/20 03:58:22;;;;;;;29.30;4.40;;;;;;;-144.74;100.00;63161.41;4979251;28;20057;-73
2023/12/20 04:00:47;;;;;;;39.90;4.10;;;;;;;-144.74;100.00;63161.41;4980626;28;20019;-72
2023/12/20 04:03:13;;;;;;;30.30;4.20;;;;;;;-144.74;100.00;63161.41;4979230;28;20050;-72
2023/12/20 04:05:40;;;;;;;32.60;4.10;;;;;;;-144.74;100.00;63161.41;4973457;28;20151;-72
2023/12/20 04:08:05;;;;;;;30.20;4.28;;;;;;;-144.74;100.00;63161.41;4981195;28;20033;-72
2023/12/20 04:10:31;;;;;;;26.98;4.55;;;;;;;-144.74;100.00;63161.41;4977433;28;20393;-73
2023/12/20 04:12:56;;;;;;;41.60;4.18;;;;;;;-144.74;100.00;63161.41;4979907;28;20089;-72
2023/12/20 04:15:22;;;;;;;18.85;3.25;;;;;;;-144.74;100.00;63161.41;4973128;28;20026;-72
2023/12/20 04:17:47;;;;;;;35.60;5.82;;;;;;;-144.74;100.00;63161.41;4973979;28;20031;-72
2023/12/20 04:20:12;;;;;;;49.38;5.22;;;;;;;-144.74;100.00;63161.41;4975055;28;20109;-72
2023/12/20 04:22:38;;;;;;;38.65;5.05;;;;;;;-144.74;100.00;63161.41;4974081;28;20114;-72
2023/12/20 04:25:03;;;;;;;35.17;5.38;;;;;;;-144.74;100.00;63161.41;4981830;28;20105;-72
2023/12/20 04:27:29;;;;;;;34.05;3.75;;;;;;;-144.74;100.00;63161.41;4981460;28;20038;-72
2023/12/20 04:29:54;;;;;;;38.15;5.22;;;;;;;-144.74;100.00;63161.41;4988370;28;20023;-72
2023/12/20 04:32:20;;;;;;;46.47;4.57;;;;;;;-144.74;100.00;63161.41;4982063;28;20026;-72
2023/12/20 04:34:45;;;;;;;38.47;4.00;;;;;;;-144.74;100.00;63161.41;4980248;28;20042;-73
2023/12/20 04:37:10;;;;;;;29.42;5.15;;;;;;;-144.74;100.00;63161.41;4976353;28;20069;-73
2023/12/20 04:39:36;;;;;;;33.70;4.57;;;;;;;-144.74;100.00;63161.41;4985706;28;20041;-72
2023/12/20 04:42:01;;;;;;;33.67;5.32;;;;;;;-144.74;100.00;63161.41;4979970;28;20042;-73
2023/12/20 04:44:26;;;;;;;30.05;4.53;;;;;;;-144.74;100.00;63161.41;4989264;28;20058;-73
2023/12/20 04:46:52;;;;;;;34.45;4.72;;;;;;;-144.74;100.00;63161.41;4989327;28;20064;-73
2023/12/20 04:49:17;;;;;;;27.42;3.50;;;;;;;-144.74;100.00;63161.41;4987141;28;20067;-73
2023/12/20 04:51:42;;;;;;;42.00;4.75;;;;;;;-144.74;100.00;63161.41;4987802;28;20037;-72
2023/12/20 04:54:08;;;;;;;26.25;4.18;;;;;;;-144.74;100.00;63161.41;4977932;28;20034;-73
2023/12/20 04:56:33;;;;;;;42.45;4.22;;;;;;;-144.74;100.00;63161.41;4985746;28;20049;-73
2023/12/20 04:58:59;;;;;;;29.85;5.03;;;;;;;-144.74;100.00;63161.41;4985847;28;20506;-72
2023/12/20 05:01:24;;;;;;;40.05;5.00;;;;;;;-144.74;100.00;63161.41;4979784;28;20101;-73
2023/12/20 05:03:49;;;;;;;32.63;6.10;;;;;;;-144.74;100.00;63161.41;4977156;28;20042;-73
2023/12/20 05:06:15;;;;;;;45.47;6.70;;;;;;;-144.74;100.00;63161.41;4978637;28;20026;-73
2023/12/20 05:08:40;;;;;;;46.28;4.82;;;;;;;-144.74;100.00;63161.41;4974303;28;20122;-72
2023/12/20 05:11:06;;;;;;;36.58;5.75;;;;;;;-144.74;100.00;63161.41;4987175;28;20022;-73
2023/12/20 05:13:35;;;;;;;37.58;6.03;;;;;;;-144.74;100.00;63161.41;4983406;28;20066;-73
2023/12/20 05:16:00;;;;;;;29.25;4.53;;;;;;;-144.74;100.00;63161.41;4984858;28;20026;-73
2023/12/20 05:18:25;;;;;;;41.25;5.80;;;;;;;-144.74;100.00;63161.41;4974395;28;20042;-72
2023/12/20 05:20:51;;;;;;;31.38;5.15;;;;;;;-144.74;100.00;63161.41;4977533;28;20023;-72
2023/12/20 05:23:17;;;;;;;34.55;5.47;;;;;;;-144.74;100.00;63161.41;4982174;28;20057;-72
2023/12/20 05:25:42;;;;;;;32.20;5.93;;;;;;;-144.74;100.00;63161.41;4975006;28;20512;-72
2023/12/20 05:28:08;;;;;;;43.20;5.65;;;;;;;-144.74;100.00;63161.41;4975642;28;20030;-72
2023/12/20 05:30:33;;;;;;;24.45;5.45;;;;;;;-144.74;100.00;63161.41;4975684;28;20022;-72
2023/12/20 05:32:58;;;;;;;32.42;4.80;;;;;;;-144.74;100.00;63161.41;4975939;28;20034;-72
2023/12/20 05:35:24;;;;;;;33.88;5.13;;;;;;;-144.74;100.00;63161.41;4981379;28;20035;-72
2023/12/20 05:37:50;;;;;;;31.65;4.25;;;;;;;-144.74;100.00;63161.41;4974442;28;20103;-72
2023/12/20 05:40:15;;;;;;;40.95;5.72;;;;;;;-144.74;100.00;63161.41;4974692;28;20053;-72
2023/12/20 05:42:41;;;;;;;30.50;4.13;;;;;;;-144.74;100.00;63161.41;4984293;28;20019;-72
2023/12/20 05:45:06;;;;;;;29.25;5.13;;;;;;;-144.74;100.00;63161.41;4977553;28;20031;-72
2023/12/20 05:47:32;;;;;;;38.72;6.20;;;;;;;-144.74;100.00;63161.41;4984891;28;20074;-73
2023/12/20 05:49:57;;;;;;;40.53;5.93;;;;;;;-144.74;100.00;63161.41;4982344;28;20374;-73
2023/12/20 05:52:23;;;;;;;30.95;5.82;;;;;;;-144.74;100.00;63161.41;4981912;28;20022;-72
2023/12/20 05:54:48;;;;;;;33.47;4.65;;;;;;;-144.74;100.00;63161.41;4978618;28;20220;-76
2023/12/20 05:57:14;;;;;;;43.45;6.03;;;;;;;-144.74;100.00;63161.41;4987681;28;20030;-76
2023/12/20 05:59:39;;;;;;;40.38;5.35;;;;;;;-144.74;100.00;63161.41;4984241;28;20041;-76
2023/12/20 06:02:05;;;;;;;38.53;4.95;;;;;;;-144.74;100.00;63161.41;4981723;28;20034;-75
2023/12/20 06:04:30;;;;;;;29.55;5.20;;;;;;;-144.74;100.00;63161.41;4979126;28;20046;-75
2023/12/20 06:06:59;;;;;;;37.92;6.22;;;;;;;-144.74;100.00;63161.41;4977089;28;20031;-75
2023/12/20 06:09:26;;;;;;;22.83;4.93;;;;;;;-144.74;100.00;63161.41;4976542;28;20047;-75
2023/12/20 06:11:51;;;;;;;30.17;4.72;;;;;;;-144.74;100.00;63161.41;4986931;28;20508;-75
2023/12/20 06:14:17;;;;;;;40.83;6.47;;;;;;;-144.74;100.00;63161.41;4981614;28;20074;-75
2023/12/20 06:16:42;;;;;;;37.88;4.75;;;;;;;-144.74;100.00;63161.41;4972316;28;20410;-75
2023/12/20 06:19:08;;;;;;;42.35;5.97;;;;;;;-144.74;100.00;63161.41;4976655;28;20058;-74
2023/12/20 06:21:33;;;;;;;32.05;5.28;;;;;;;-144.74;100.00;63161.41;4985497;28;20049;-74
2023/12/20 06:24:00;;;;;;;42.53;5.45;;;;;;;-144.74;100.00;63161.41;4982887;28;20046;-74
2023/12/20 06:26:25;;;;;;;45.33;6.35;;;;;;;-144.74;100.00;63161.41;4983981;28;20038;-74
2023/12/20 06:28:50;;;;;;;37.58;5.00;;;;;;;-144.74;100.00;63161.41;4975042;28;20118;-74
2023/12/20 06:31:16;;;;;;;51.28;6.18;;;;;;;-144.74;100.00;63161.41;4975044;28;20057;-73
2023/12/20 06:33:43;;;;;;;41.92;5.72;;;;;;;-144.74;100.00;63161.41;4977903;28;20034;-74
2023/12/20 06:36:11;;;;;;;41.47;6.05;;;;;;;-144.74;100.00;63161.41;4981690;28;20030;-72
2023/12/20 06:38:36;;;;;;;37.05;4.95;;;;;;;-144.74;100.00;63161.41;4979249;28;20043;-72
2023/12/20 06:41:02;;;;;;;36.88;5.40;;;;;;;-144.74;100.00;63161.41;4979785;28;20026;-72
2023/12/20 06:43:28;;;;;;;38.88;4.75;;;;;;;-144.74;100.00;63161.41;4972306;28;20049;-72
2023/12/20 06:45:53;;;;;;;38.10;4.88;;;;;;;-144.74;100.00;63161.41;4980095;28;20042;-71
2023/12/20 06:48:19;;;;;;;38.67;5.63;;;;;;;-144.74;100.00;63161.41;4982328;28;20039;-71
2023/12/20 06:50:44;;;;;;;40.17;6.88;;;;;;;-144.74;100.00;63161.41;4977402;28;20124;-71
2023/12/20 06:53:09;;;;;;;36.92;4.78;;;;;;;-144.74;100.00;63161.41;4971943;28;20053;-71
2023/12/20 06:55:37;;;;;;;42.53;6.20;;;;;;;-144.74;100.00;63161.41;4982267;28;20029;-71
2023/12/20 06:58:03;;;;;;;43.38;6.20;;;;;;;-144.74;100.00;63161.41;4980930;28;20037;-72
2023/12/20 07:00:28;;;;;;;34.25;5.55;;;;;;;-144.74;100.00;63161.41;4974841;28;20018;-73
2023/12/20 07:02:54;;;;;;;35.33;5.70;;;;;;;-144.74;100.00;63161.41;4981305;28;20038;-73
2023/12/20 07:05:19;;;;;;;42.28;4.65;;;;;;;-144.74;100.00;63161.41;4980379;28;20038;-71
2023/12/20 07:07:46;;;;;;;45.92;6.57;;;;;;;-144.74;100.00;63161.41;4977507;28;20046;-71
2023/12/20 07:10:12;;;;;;;32.38;4.38;;;;;;;-144.74;100.00;63161.41;4974950;28;21025;-71
2023/12/20 07:12:38;;;;;;;42.58;6.70;;;;;;;-144.74;100.00;63161.41;4978090;28;20031;-72
2023/12/20 07:15:05;;;;;;;54.28;5.15;;;;;;;-144.74;100.00;63161.41;4984156;28;20042;-72
2023/12/20 07:17:34;;;;;;;32.15;4.40;;;;;;;-144.74;100.00;63161.41;4980598;28;20023;-69
2023/12/20 07:20:03;;;;;;;32.33;4.68;;;;;;;-144.74;100.00;63161.41;4976040;28;20072;-68
2023/12/20 07:22:29;;;;;;;36.22;5.35;;;;;;;-144.74;100.00;63161.41;4980697;28;20019;-69
2023/12/20 07:24:54;;;;;;;36.33;6.10;;;;;;;-144.74;100.00;63161.41;4976956;28;20088;-70
2023/12/20 07:27:20;;;;;;;46.42;6.13;;;;;;;-144.74;100.00;63161.41;4982937;28;20108;-69
2023/12/20 07:29:45;;;;;;;39.55;5.57;;;;;;;-144.74;100.00;63161.41;4980794;28;20046;-69
2023/12/20 07:32:10;;;;;;;31.73;5.88;;;;;;;-144.74;100.00;63161.41;4974412;28;20031;-69
2023/12/20 07:34:36;;;;;;;37.17;5.63;;;;;;;-144.74;100.00;63161.41;4976886;28;20058;-69
2023/12/20 07:37:04;;;;;;;52.08;7.68;;;;;;;-144.74;100.00;63161.41;4982428;28;20015;-69
2023/12/20 07:39:29;;;;;;;50.38;6.63;;;;;;;-144.74;100.00;63161.41;4981841;28;20129;-69
2023/12/20 07:41:55;;;;;;;45.58;6.25;;;;;;;-144.74;100.00;63161.41;4976595;28;20368;-70
2023/12/20 07:44:20;;;;;;;40.88;6.43;;;;;;;-144.74;100.00;63161.41;4979524;28;20070;-69
2023/12/20 07:46:45;;;;;;;34.10;5.30;;;;;;;-144.74;100.00;63161.41;4972706;28;20023;-69
2023/12/20 07:49:11;;;;;;;46.63;6.60;;;;;;;-144.74;100.00;63161.41;4978127;28;20038;-70
2023/12/20 07:51:36;;;;;;;43.17;5.97;;;;;;;-144.74;100.00;63161.41;4975817;28;20023;-69
2023/12/20 07:54:03;;;;;;;46.97;7.40;;;;;;;-144.74;100.00;63161.41;4973298;28;20066;-70
2023/12/20 07:56:28;;;;;;;51.90;7.45;;;;;;;-144.74;100.00;63161.41;4983397;28;20022;-69
2023/12/20 07:58:54;;;;;;;49.08;6.75;;;;;;;-144.74;100.00;63161.41;4983444;28;20035;-70
2023/12/20 08:01:20;;;;;;;52.78;7.82;;;;;;;-144.74;100.00;63161.41;4982592;28;20031;-70
2023/12/20 08:03:46;;;;;;;47.28;6.53;;;;;;;-144.74;100.00;63161.41;4983536;28;20038;-70
2023/12/20 08:06:11;;;;;;;52.30;6.53;;;;;;;-144.74;100.00;63161.41;4979248;28;20401;-69
2023/12/20 08:08:37;;;;;;;43.22;5.32;;;;;;;-144.74;100.00;63161.41;4982300;28;20042;-69
2023/12/20 08:11:02;;;;;;;41.55;5.80;;;;;;;-144.74;100.00;63161.41;4979262;28;20038;-69
2023/12/20 08:13:28;;;;;;;44.08;6.60;;;;;;;-144.74;100.00;63161.41;4975923;28;20034;-69
2023/12/20 08:15:53;;;;;;;52.65;7.63;;;;;;;-144.74;100.00;63161.41;4977532;28;20023;-70
2023/12/20 08:18:19;;;;;;;43.90;6.28;;;;;;;-144.74;100.00;63161.41;4975104;28;20059;-70
2023/12/20 08:20:44;;;;;;;39.22;5.75;;;;;;;-144.74;100.00;63161.41;4976509;28;20019;-70
2023/12/20 08:23:10;;;;;;;43.10;5.63;;;;;;;-144.74;100.00;63161.41;4975821;28;20116;-69
2023/12/20 08:25:35;;;;;;;42.00;6.53;;;;;;;-144.74;100.00;63161.41;4981338;28;20113;-69
2023/12/20 08:28:02;;;;;;;31.30;5.50;;;;;;;-144.74;100.00;63161.41;4978303;28;20111;-70
2023/12/20 08:30:29;;;;;;;43.47;6.00;;;;;;;-144.74;100.00;63161.41;4981553;28;20035;-69
2023/12/20 08:32:55;;;;;;;43.13;7.40;;;;;;;-144.74;100.00;63161.41;4979360;28;20054;-69
2023/12/20 08:35:20;;;;;;;53.38;6.60;;;;;;;-144.74;100.00;63161.41;4974663;28;20053;-70
2023/12/20 08:37:45;;;;;;;36.50;6.65;;;;;;;-144.74;100.00;63161.41;4981494;28;20043;-70
2023/12/20 08:40:11;;;;;;;40.95;6.75;;;;;;;-144.74;100.00;63161.41;4989870;28;20030;-69
2023/12/20 08:42:36;;;;;;;31.00;5.30;;;;;;;-144.74;100.00;63161.41;4987757;28;20029;-69
2023/12/20 08:45:04;;;;;;;36.47;6.40;;;;;;;-144.74;100.00;63161.41;4985910;28;20027;-69
2023/12/20 08:47:29;;;;;;;38.58;7.55;;;;;;;-144.74;100.00;63161.41;4981671;28;20027;-71
2023/12/20 08:49:56;;;;;;;39.40;5.43;;;;;;;-144.74;100.00;63161.41;4975714;28;20042;-71
2023/12/20 08:52:25;;;;;;;32.75;5.05;;;;;;;-144.74;100.00;63161.41;4976213;28;20022;-69
2023/12/20 08:54:51;;;;;;;44.45;5.55;;;;;;;-144.74;100.00;63161.41;4981183;28;20039;-68
2023/12/20 08:57:21;;;;;;;41.53;5.90;;;;;;;-144.74;100.00;63161.41;4982113;28;20044;-69
2023/12/20 08:59:50;;;;;;;29.95;4.95;;;;;;;-144.74;100.00;63161.41;4975372;28;20035;-69
2023/12/20 09:02:16;;;;;;;46.30;6.88;;;;;;;-144.74;100.00;63161.41;4976898;28;20069;-71
2023/12/20 09:04:42;;;;;;;41.03;7.20;;;;;;;-144.74;100.00;63161.41;4980970;28;20086;-70
2023/12/20 09:07:20;;;;;;;40.28;6.85;;;;;;;-144.74;100.00;63161.41;4976920;28;20035;-71
2023/12/20 09:09:45;;;;;;;37.35;5.68;;;;;;;-144.74;100.00;63161.41;4974964;28;20046;-74
2023/12/20 09:12:11;;;;;;;36.47;4.97;;;;;;;-144.74;100.00;63161.41;4977676;28;20023;-73
2023/12/20 09:14:36;;;;;;;26.30;5.05;;;;;;;-144.74;100.00;63161.41;4979961;28;20117;-73
2023/12/20 09:17:03;;;;;;;33.97;4.90;;;;;;;-144.74;100.00;63161.41;4978239;28;20033;-72
2023/12/20 09:19:29;;;;;;;31.40;5.57;;;;;;;-144.74;100.00;63161.41;4978064;28;20034;-73
2023/12/20 09:21:54;;;;;;;31.95;5.43;;;;;;;-144.74;100.00;63161.41;4986132;28;20030;-74
2023/12/20 09:24:20;;;;;;;25.00;4.68;;;;;;;-144.74;100.00;63161.41;4982101;28;20038;-75
2023/12/20 09:26:45;;;;;;;32.58;5.95;;;;;;;-144.74;100.00;63161.41;4988181;28;20030;-73
2023/12/20 09:29:15;;;;;;;21.05;4.85;;;;;;;-144.74;100.00;63161.41;4988568;28;20493;-74
2023/12/20 09:31:40;;;;;;;27.80;5.22;;;;;;;-144.74;100.00;63161.41;4975757;28;20034;-73
2023/12/20 09:34:05;;;;;;;23.13;4.57;;;;;;;-144.74;100.00;63161.41;4976330;28;20046;-73
2023/12/20 09:36:35;;;;;;;19.25;3.58;;;;;;;-144.74;100.00;63161.41;4976649;28;20113;-73
2023/12/20 09:39:01;;;;;;;21.33;3.90;;;;;;;-144.74;100.00;63161.41;4974156;28;20042;-74
2023/12/20 09:41:31;;;;;;;16.73;2.65;;;;;;;-144.74;100.00;63161.41;4977404;28;20033;-73
2023/12/20 09:44:02;;;;;;;10.48;2.13;;;;;;;-144.74;100.00;63161.41;4978325;28;20043;-74
2023/12/20 09:46:31;;;;;;;11.32;2.95;;;;;;;-144.74;100.00;63161.41;4991862;28;20035;-72
2023/12/20 09:48:58;;;;;;;15.93;2.20;;;;;;;-144.74;100.00;63161.41;4985285;28;20042;-72
2023/12/20 09:51:23;;;;;;;14.35;2.95;;;;;;;-144.74;100.00;63161.41;4980007;28;20026;-73
2023/12/20 09:53:50;;;;;;;10.88;2.47;;;;;;;-144.74;100.00;63161.41;4982333;28;20041;-75
2023/12/20 09:56:16;;;;;;;6.47;1.95;;;;;;;-144.74;100.00;63161.41;4975309;28;20023;-75
2023/12/20 09:58:41;;;;;;;10.75;1.70;;;;;;;-144.74;100.00;63161.41;4971749;28;20035;-73
2023/12/20 10:01:09;;;;;;;8.20;1.42;;;;;;;-144.74;100.00;63161.41;4971289;28;20367;-73
2023/12/20 10:03:37;;;;;;;6.03;1.35;;;;;;;-144.74;100.00;63161.41;4982931;28;20026;-72
2023/12/20 10:06:03;;;;;;;7.00;1.00;;;;;;;-144.74;100.00;63161.41;4974599;28;20050;-71
2023/12/20 10:08:30;;;;;;;7.68;1.20;;;;;;;-144.74;100.00;63161.41;4978063;28;20069;-71
2023/12/20 10:10:57;;;;;;;14.35;1.38;;;;;;;-144.74;100.00;63161.41;4979119;28;20038;-70
2023/12/20 10:13:22;;;;;;;5.55;1.27;;;;;;;-144.74;100.00;63161.41;4981525;28;20117;-70
2023/12/20 10:15:49;;;;;;;4.40;1.00;;;;;;;-144.74;100.00;63161.41;4979374;28;20062;-70
2023/12/20 10:18:15;;;;;;;10.15;1.60;;;;;;;-144.74;100.00;63161.41;4978833;28;20433;-70
2023/12/20 10:20:42;;;;;;;8.40;1.38;;;;;;;-144.74;100.00;63161.41;4980236;28;20026;-69
2023/12/20 10:23:07;;;;;;;13.43;1.52;;;;;;;-144.74;100.00;63161.41;4980208;28;20094;-69
2023/12/20 10:25:33;;;;;;;9.88;1.40;;;;;;;-144.74;100.00;63161.41;4980389;28;20030;-70
2023/12/20 10:28:12;;;;;;;8.68;1.80;;;;;;;-144.74;100.00;63161.41;4980292;28;20039;-69
2023/12/20 10:30:38;;;;;;;11.45;1.73;;;;;;;-144.74;100.00;63161.41;4981456;28;20026;-70
2023/12/20 10:33:06;;;;;;;11.18;1.63;;;;;;;-144.74;100.00;63161.41;4980183;28;20027;-69
2023/12/20 10:35:31;;;;;;;8.27;1.30;;;;;;;-144.74;100.00;63161.41;4975632;28;20026;-70
2023/12/20 10:38:02;;;;;;;15.75;1.35;;;;;;;-144.74;100.00;63161.41;4980651;28;20625;-70
2023/12/20 10:40:29;;;;;;;10.30;1.70;;;;;;;-144.74;100.00;63161.41;4976556;28;20026;-69
2023/12/20 10:42:56;;;;;;;12.82;2.22;;;;;;;-144.74;100.00;63161.41;4978907;28;20486;-69
2023/12/20 10:45:23;;;;;;;7.40;1.45;;;;;;;-144.74;100.00;63161.41;4979464;28;20043;-69
2023/12/20 10:47:50;;;;;;;11.73;2.38;;;;;;;-144.74;100.00;63161.41;4970784;28;20038;-70
2023/12/20 10:50:15;;;;;;;12.55;2.15;;;;;;;-144.74;100.00;63161.41;4971147;28;20093;-70
2023/12/20 10:52:42;;;;;;;10.95;1.90;;;;;;;-144.74;100.00;63161.41;4980995;28;20026;-69
2023/12/20 10:55:08;;;;;;;13.18;2.13;;;;;;;-144.74;100.00;63161.41;4984893;28;20025;-69